Time;durP1;ratioP1;P1;durP2;ratioP2;P2;SDS_P1;SDS_P2;PMS_P1;PMS_P2;Temp;Humidity;BMP_temperature;BMP_pressure;BME280_temperature;BME280_humidity;BME280_pressure;Samples;Min_cycle;Max_cycle;Signal;HPM_P1;HPM_P2
2023/09/05 00:00:10;;;;;;;18.33;7.00;;;;;;;15.28;100.00;101819.00;6213646;23;20412;-83
2023/09/05 00:02:42;;;;;;;18.98;6.85;;;;;;;15.23;100.00;101823.94;6213196;23;20019;-84
2023/09/05 00:05:08;;;;;;;18.40;6.90;;;;;;;15.20;100.00;101821.47;6213812;23;20425;-83
2023/09/05 00:07:40;;;;;;;18.15;6.57;;;;;;;15.18;100.00;101818.00;6213420;23;20004;-84
2023/09/05 00:10:13;;;;;;;19.27;7.60;;;;;;;15.17;100.00;101810.88;6241839;23;20437;-83
2023/09/05 00:12:40;;;;;;;19.50;7.10;;;;;;;15.12;100.00;101813.06;6241185;23;20007;-83
2023/09/05 00:15:11;;;;;;;20.15;8.27;;;;;;;15.08;100.00;101809.75;6214439;23;20000;-83
2023/09/05 00:17:37;;;;;;;18.95;7.75;;;;;;;15.06;100.00;101808.97;6241225;23;20004;-83
2023/09/05 00:20:04;;;;;;;19.55;8.00;;;;;;;15.02;100.00;101810.19;6240752;23;20070;-84
2023/09/05 00:22:30;;;;;;;19.52;6.93;;;;;;;15.00;100.00;101813.03;6213108;23;20008;-82
2023/09/05 00:24:55;;;;;;;18.50;7.68;;;;;;;14.98;100.00;101820.41;6189046;23;20306;-84
2023/09/05 00:27:20;;;;;;;21.48;8.05;;;;;;;14.93;100.00;101811.75;6213392;23;20004;-85
2023/09/05 00:29:46;;;;;;;18.45;7.05;;;;;;;14.93;100.00;101809.06;6214270;23;20000;-84
2023/09/05 00:32:11;;;;;;;18.30;7.90;;;;;;;14.92;100.00;101806.47;6240932;23;20440;-84
2023/09/05 00:34:38;;;;;;;20.85;9.00;;;;;;;14.89;100.00;101809.41;6214050;23;20026;-83
2023/09/05 00:37:06;;;;;;;18.38;8.00;;;;;;;14.80;100.00;101809.16;6213933;23;20015;-84
2023/09/05 00:39:33;;;;;;;19.15;7.55;;;;;;;14.77;100.00;101813.91;6241287;23;20065;-84
2023/09/05 00:42:00;;;;;;;20.00;8.55;;;;;;;14.74;100.00;101806.03;6240577;23;20027;-84
2023/09/05 00:44:26;;;;;;;20.42;9.45;;;;;;;14.72;100.00;101814.28;6214386;23;20043;-84
2023/09/05 00:46:54;;;;;;;21.08;9.15;;;;;;;14.71;100.00;101814.41;6240477;23;20004;-83
2023/09/05 00:49:27;;;;;;;20.67;8.50;;;;;;;14.65;100.00;101813.00;6213739;23;20111;-83
2023/09/05 00:51:54;;;;;;;20.67;9.38;;;;;;;14.64;100.00;101814.88;6215993;23;20069;-83
2023/09/05 00:54:20;;;;;;;20.27;8.38;;;;;;;14.61;100.00;101806.97;6239596;23;20106;-82
2023/09/05 00:56:45;;;;;;;20.40;8.05;;;;;;;14.62;100.00;101813.25;6239706;23;20035;-83
2023/09/05 00:59:12;;;;;;;21.10;9.02;;;;;;;14.59;100.00;101803.47;6213619;23;20031;-83
2023/09/05 01:01:37;;;;;;;20.48;8.70;;;;;;;14.56;100.00;101811.81;6240854;23;20078;-78
2023/09/05 01:04:03;;;;;;;20.83;7.85;;;;;;;14.56;100.00;101803.72;6214074;23;20091;-79
2023/09/05 01:06:37;;;;;;;19.27;8.15;;;;;;;14.52;100.00;101804.91;6240789;23;20054;-78
2023/09/05 01:09:18;;;;;;;20.13;8.38;;;;;;;14.50;100.00;101809.59;6240628;23;20008;-78
2023/09/05 01:11:44;;;;;;;18.25;7.00;;;;;;;14.48;100.00;101811.53;6213586;23;20008;-78
2023/09/05 01:14:10;;;;;;;18.75;7.43;;;;;;;14.45;100.00;101804.53;6240338;23;20000;-78
2023/09/05 01:16:42;;;;;;;19.45;8.43;;;;;;;14.44;100.00;101802.78;6240520;23;20004;-78
2023/09/05 01:19:08;;;;;;;20.30;8.55;;;;;;;14.44;100.00;101801.94;6213893;23;20012;-78
2023/09/05 01:21:40;;;;;;;19.13;7.68;;;;;;;14.41;100.00;101804.88;6213591;23;20062;-78
2023/09/05 01:24:16;;;;;;;21.42;8.95;;;;;;;14.39;100.00;101804.97;6213930;23;19999;-78
2023/09/05 01:26:43;;;;;;;20.58;8.57;;;;;;;14.38;100.00;101808.66;6240341;23;20004;-77
2023/09/05 01:29:11;;;;;;;21.27;9.25;;;;;;;14.39;100.00;101812.22;6241048;23;20030;-79
2023/09/05 01:31:37;;;;;;;19.83;8.02;;;;;;;14.39;100.00;101812.22;6213455;23;20034;-78
2023/09/05 01:34:02;;;;;;;18.73;7.65;;;;;;;14.38;100.00;101813.19;6213707;23;20000;-78
2023/09/05 01:36:28;;;;;;;21.00;7.90;;;;;;;14.34;100.00;101808.00;6239948;23;20073;-77
2023/09/05 01:38:53;;;;;;;19.98;7.82;;;;;;;14.31;100.00;101813.66;6213041;23;20338;-78
2023/09/05 01:41:18;;;;;;;21.60;8.82;;;;;;;14.30;100.00;101821.88;6213274;23;20378;-77
2023/09/05 01:43:44;;;;;;;20.58;8.93;;;;;;;14.28;100.00;101813.88;6213798;23;20004;-78
2023/09/05 01:46:10;;;;;;;21.50;9.65;;;;;;;14.26;100.00;101818.53;6213752;23;20011;-78
2023/09/05 01:48:35;;;;;;;18.83;8.25;;;;;;;14.24;100.00;101809.66;6213006;23;20011;-78
2023/09/05 01:51:00;;;;;;;19.38;8.05;;;;;;;14.22;100.00;101811.63;6213378;23;20386;-77
2023/09/05 01:53:26;;;;;;;19.15;7.78;;;;;;;14.23;100.00;101809.78;6239605;23;20622;-78
2023/09/05 01:55:52;;;;;;;19.52;8.52;;;;;;;14.21;100.00;101809.03;6213189;23;20390;-79
2023/09/05 01:58:17;;;;;;;19.42;8.05;;;;;;;14.19;100.00;101803.75;6212977;23;20004;-77
2023/09/05 02:00:43;;;;;;;20.02;8.65;;;;;;;14.20;100.00;101805.44;6213659;23;20097;-77
2023/09/05 02:03:09;;;;;;;21.48;8.70;;;;;;;14.22;100.00;101802.66;6240421;23;20075;-78
2023/09/05 02:05:35;;;;;;;19.73;7.95;;;;;;;14.22;100.00;101803.53;6214273;23;20008;-78
2023/09/05 02:08:00;;;;;;;21.80;8.77;;;;;;;14.22;100.00;101808.94;6215053;23;20000;-78
2023/09/05 02:10:25;;;;;;;19.80;8.32;;;;;;;14.21;100.00;101812.59;6243069;23;20000;-78
2023/09/05 02:12:51;;;;;;;19.20;7.90;;;;;;;14.19;100.00;101801.03;6242501;23;20008;-78
2023/09/05 02:15:16;;;;;;;19.20;8.27;;;;;;;14.18;100.00;101804.72;6189852;23;20035;-78
2023/09/05 02:17:42;;;;;;;20.75;8.45;;;;;;;14.19;100.00;101798.34;6242248;23;20000;-78
2023/09/05 02:20:08;;;;;;;21.33;8.88;;;;;;;14.20;100.00;101796.50;6215079;23;20035;-78
2023/09/05 02:22:33;;;;;;;21.20;8.80;;;;;;;14.19;100.00;101798.34;6215266;23;20015;-78
2023/09/05 02:24:59;;;;;;;19.17;7.95;;;;;;;14.20;100.00;101794.63;6215403;23;20534;-78
2023/09/05 02:27:26;;;;;;;20.17;8.30;;;;;;;14.21;100.00;101792.81;6241979;23;20000;-78
2023/09/05 02:29:56;;;;;;;19.65;8.70;;;;;;;14.22;100.00;101797.25;6215458;23;20012;-82
2023/09/05 02:32:22;;;;;;;20.02;8.68;;;;;;;14.23;100.00;101802.56;6241998;23;20058;-82
2023/09/05 02:34:52;;;;;;;19.48;8.95;;;;;;;14.25;100.00;101808.69;6242096;23;20040;-83
2023/09/05 02:37:18;;;;;;;21.23;8.75;;;;;;;14.26;100.00;101814.97;6214933;23;20342;-82
2023/09/05 02:39:43;;;;;;;21.98;8.93;;;;;;;14.25;100.00;101806.00;6241951;23;20008;-81
2023/09/05 02:42:08;;;;;;;20.27;8.35;;;;;;;14.25;100.00;101799.72;6241279;23;20142;-82
2023/09/05 02:44:34;;;;;;;21.40;8.70;;;;;;;14.24;100.00;101798.84;6241666;23;20368;-84
2023/09/05 02:46:59;;;;;;;20.05;7.82;;;;;;;14.21;100.00;101801.78;6215028;23;20091;-82
2023/09/05 02:49:24;;;;;;;19.85;8.68;;;;;;;14.19;100.00;101792.94;6215039;23;20365;-82
2023/09/05 02:51:49;;;;;;;20.95;8.77;;;;;;;14.17;100.00;101794.88;6241841;23;20453;-82
2023/09/05 02:54:15;;;;;;;20.05;8.52;;;;;;;14.13;100.00;101794.25;6214759;23;20475;-83
2023/09/05 02:56:40;;;;;;;20.58;8.65;;;;;;;14.12;100.00;101791.66;6214887;23;20004;-83
2023/09/05 02:59:05;;;;;;;19.05;8.38;;;;;;;14.12;100.00;101791.66;6214686;23;20004;-82
2023/09/05 03:01:31;;;;;;;18.77;7.85;;;;;;;14.10;100.00;101788.19;6241238;23;20081;-82
2023/09/05 03:03:56;;;;;;;19.60;8.70;;;;;;;14.10;100.00;101790.88;6241122;23;20012;-80
2023/09/05 03:06:22;;;;;;;20.33;8.45;;;;;;;14.10;100.00;101782.78;6213563;23;20311;-82
2023/09/05 03:08:47;;;;;;;21.20;8.88;;;;;;;14.08;100.00;101785.59;6241414;23;20004;-82
2023/09/05 03:11:17;;;;;;;21.05;7.72;;;;;;;14.07;100.00;101794.69;6241170;23;20011;-82
2023/09/05 03:13:42;;;;;;;;;;;;;;;14.12;100.00;101786.25;6214974;23;20095;-83
2023/09/05 03:16:08;;;;;;;19.45;8.02;;;;;;;14.06;100.00;101792.13;6214218;23;20249;-82
2023/09/05 03:18:33;;;;;;;21.67;8.85;;;;;;;14.03;100.00;101789.63;6213766;23;20648;-79
2023/09/05 03:20:58;;;;;;;19.48;8.70;;;;;;;14.02;100.00;101790.59;6241353;23;20086;-78
2023/09/05 03:23:24;;;;;;;20.88;8.52;;;;;;;14.00;100.00;101790.72;6241664;23;20003;-78
2023/09/05 03:25:51;;;;;;;20.90;9.13;;;;;;;13.97;100.00;101786.38;6213425;23;20378;-78
2023/09/05 03:28:16;;;;;;;19.60;8.35;;;;;;;13.95;100.00;101785.66;6214440;23;20004;-78
2023/09/05 03:30:41;;;;;;;19.83;8.43;;;;;;;13.94;100.00;101789.31;6241988;23;20000;-78
2023/09/05 03:33:07;;;;;;;21.23;9.18;;;;;;;13.92;100.00;101783.16;6241658;23;20334;-78
2023/09/05 03:35:33;;;;;;;20.85;8.23;;;;;;;13.90;100.00;101781.56;6240879;23;20055;-79
2023/09/05 03:37:59;;;;;;;20.77;8.90;;;;;;;13.86;100.00;101780.03;6214248;23;20008;-78
2023/09/05 03:40:24;;;;;;;20.83;8.23;;;;;;;13.86;100.00;101770.09;6241726;23;20007;-78
2023/09/05 03:42:50;;;;;;;20.92;8.50;;;;;;;13.84;100.00;101776.59;6213863;23;20012;-79
2023/09/05 03:45:15;;;;;;;22.23;8.38;;;;;;;13.83;100.00;101774.88;6241715;23;20091;-78
2023/09/05 03:47:40;;;;;;;20.15;8.00;;;;;;;13.81;100.00;101775.81;6214007;23;20067;-78
2023/09/05 03:50:07;;;;;;;18.80;7.70;;;;;;;13.81;100.00;101781.22;6213945;23;20333;-78
2023/09/05 03:52:32;;;;;;;19.73;8.65;;;;;;;13.80;100.00;101775.94;6240170;23;20008;-78
2023/09/05 03:54:57;;;;;;;18.45;7.63;;;;;;;13.79;100.00;101774.19;6213919;23;20035;-78
2023/09/05 03:57:23;;;;;;;18.95;8.75;;;;;;;13.78;100.00;101772.50;6241070;23;20504;-78
2023/09/05 03:59:48;;;;;;;18.80;7.88;;;;;;;13.77;100.00;101779.72;6214244;23;20008;-78
2023/09/05 04:02:14;;;;;;;25.25;8.43;;;;;;;13.76;100.00;101782.53;6240483;23;20057;-78
2023/09/05 04:04:39;;;;;;;17.92;7.47;;;;;;;13.75;100.00;101772.72;6214645;23;20011;-78
2023/09/05 04:07:06;;;;;;;19.17;7.68;;;;;;;13.73;100.00;101769.25;6241093;23;20022;-78
2023/09/05 04:09:32;;;;;;;19.83;8.18;;;;;;;13.71;100.00;101776.63;6240930;23;20050;-79
2023/09/05 04:11:57;;;;;;;19.52;7.07;;;;;;;13.70;100.00;101769.47;6241553;23;20012;-77
2023/09/05 04:14:22;;;;;;;18.67;7.70;;;;;;;13.67;100.00;101764.28;6241313;23;20027;-78
2023/09/05 04:16:48;;;;;;;18.98;7.45;;;;;;;13.67;100.00;101762.44;6241090;23;20004;-78
2023/09/05 04:19:13;;;;;;;18.83;6.78;;;;;;;13.66;100.00;101759.84;6213835;23;20046;-79
2023/09/05 04:21:39;;;;;;;18.80;7.63;;;;;;;13.61;100.00;101755.63;6241230;23;20333;-78
2023/09/05 04:24:05;;;;;;;20.17;7.32;;;;;;;13.59;100.00;101754.03;6241066;23;20043;-79
2023/09/05 04:26:33;;;;;;;17.33;6.47;;;;;;;13.55;100.00;101750.69;6241483;23;20000;-79
2023/09/05 04:28:58;;;;;;;17.70;6.75;;;;;;;13.56;100.00;101746.16;6214399;23;20004;-78
2023/09/05 04:31:24;;;;;;;18.95;7.30;;;;;;;13.56;100.00;101748.88;6240026;23;20000;-78
2023/09/05 04:33:50;;;;;;;17.00;6.63;;;;;;;13.54;100.00;101748.94;6240043;23;20004;-77
2023/09/05 04:36:15;;;;;;;20.42;7.28;;;;;;;13.52;100.00;101756.31;6213506;23;20015;-78
2023/09/05 04:38:43;;;;;;;18.77;6.97;;;;;;;13.51;100.00;101754.56;6240854;23;20062;-78
2023/09/05 04:41:09;;;;;;;19.40;6.38;;;;;;;13.51;100.00;101751.03;6240761;23;20035;-77
2023/09/05 04:43:35;;;;;;;21.90;7.10;;;;;;;13.50;100.00;101749.28;6241155;23;20103;-77
2023/09/05 04:46:03;;;;;;;18.50;7.13;;;;;;;13.47;100.00;101747.69;6240208;23;20011;-77
2023/09/05 04:48:29;;;;;;;17.77;7.65;;;;;;;13.47;100.00;101747.69;6239985;23;20014;-78
2023/09/05 04:50:55;;;;;;;17.40;7.05;;;;;;;13.47;100.00;101745.00;6240334;23;20004;-77
2023/09/05 04:53:20;;;;;;;19.98;7.13;;;;;;;13.46;100.00;101740.56;6239940;23;20004;-78
2023/09/05 04:55:48;;;;;;;19.08;7.43;;;;;;;13.44;100.00;101745.19;6240760;23;20079;-77
2023/09/05 04:58:14;;;;;;;20.92;7.07;;;;;;;13.44;100.00;101745.19;6240403;23;20108;-78
2023/09/05 05:00:41;;;;;;;18.42;6.97;;;;;;;13.43;100.00;101751.56;6240634;23;20007;-78
2023/09/05 05:03:09;;;;;;;19.15;7.68;;;;;;;13.42;100.00;101744.44;6213414;23;20087;-78
2023/09/05 05:05:36;;;;;;;18.00;6.82;;;;;;;13.43;100.00;101752.44;6213977;23;20024;-78
2023/09/05 05:08:01;;;;;;;19.83;6.82;;;;;;;13.43;100.00;101744.31;6240558;23;20027;-77
2023/09/05 05:10:26;;;;;;;19.40;7.65;;;;;;;13.42;100.00;101745.28;6213897;23;20079;-77
2023/09/05 05:12:52;;;;;;;18.33;6.50;;;;;;;13.44;100.00;101748.75;6239345;23;20115;-77
2023/09/05 05:15:17;;;;;;;17.85;6.55;;;;;;;13.46;100.00;101762.16;6238951;23;20030;-78
2023/09/05 05:17:42;;;;;;;16.60;6.55;;;;;;;13.45;100.00;101766.66;6214013;23;20345;-78
2023/09/05 05:20:08;;;;;;;18.70;7.20;;;;;;;13.45;100.00;101757.72;6212593;23;20012;-78
2023/09/05 05:22:34;;;;;;;17.10;5.85;;;;;;;13.45;100.00;101755.88;6212902;23;20015;-78
2023/09/05 05:24:59;;;;;;;16.65;6.82;;;;;;;13.46;100.00;101764.84;6213692;23;20000;-78
2023/09/05 05:27:29;;;;;;;18.73;6.63;;;;;;;13.47;100.00;101774.69;6213661;23;20008;-77
2023/09/05 05:29:54;;;;;;;18.33;6.55;;;;;;;13.49;100.00;101766.47;6240280;23;20008;-77
2023/09/05 05:32:19;;;;;;;18.20;6.43;;;;;;;13.49;100.00;101764.63;6240306;23;20008;-77
2023/09/05 05:34:48;;;;;;;19.98;6.88;;;;;;;13.52;100.00;101771.66;6240008;23;20043;-79
2023/09/05 05:37:15;;;;;;;16.60;6.13;;;;;;;13.54;100.00;101775.94;6214842;23;20008;-78
2023/09/05 05:39:41;;;;;;;17.90;5.78;;;;;;;13.58;100.00;101768.50;6240766;23;20243;-83
2023/09/05 05:42:06;;;;;;;16.90;5.65;;;;;;;13.62;100.00;101761.94;6215001;23;20015;-83
2023/09/05 05:44:32;;;;;;;18.42;6.20;;;;;;;13.66;100.00;101762.56;6215969;23;20377;-83
2023/09/05 05:46:58;;;;;;;19.13;6.38;;;;;;;13.69;100.00;101773.13;6241396;23;20004;-83
2023/09/05 05:49:28;;;;;;;18.05;6.57;;;;;;;13.73;100.00;101763.84;6215439;23;20000;-83
2023/09/05 05:51:54;;;;;;;17.00;6.30;;;;;;;13.76;100.00;101766.31;6215282;23;20012;-83
2023/09/05 05:54:20;;;;;;;17.17;5.90;;;;;;;13.80;100.00;101767.84;6191050;23;20042;-82
2023/09/05 05:56:45;;;;;;;16.30;5.68;;;;;;;13.86;100.00;101777.34;6229101;23;20104;-83
2023/09/05 05:59:10;;;;;;;18.52;5.97;;;;;;;13.91;100.00;101783.25;6253871;23;20025;-79
2023/09/05 06:01:36;;;;;;;15.43;6.22;;;;;;;13.96;100.00;101771.13;6251847;23;20007;-82
2023/09/05 06:04:01;;;;;;;18.40;6.45;;;;;;;14.05;100.00;101768.75;6225997;23;20004;-83
2023/09/05 06:06:27;;;;;;;15.85;6.25;;;;;;;14.18;100.00;101766.00;6221539;23;20265;-83
2023/09/05 06:08:52;;;;;;;18.58;5.80;;;;;;;14.31;100.00;101770.38;6219329;23;20008;-83
2023/09/05 06:11:18;;;;;;;17.70;5.65;;;;;;;14.44;100.00;101766.78;6219599;23;20000;-83
2023/09/05 06:13:43;;;;;;;15.88;5.70;;;;;;;14.52;100.00;101775.16;6250021;23;20079;-82
2023/09/05 06:16:08;;;;;;;20.38;6.00;;;;;;;14.61;100.00;101771.81;6219751;23;20073;-83
2023/09/05 06:18:34;;;;;;;15.32;5.68;;;;;;;14.70;100.00;101767.53;6247371;23;20000;-84
2023/09/05 06:20:59;;;;;;;14.18;5.22;;;;;;;14.80;100.00;101764.97;6247417;23;20024;-84
2023/09/05 06:23:24;;;;;;;13.40;4.47;;;;;;;14.85;100.00;101774.47;6224110;23;20023;-84
2023/09/05 06:25:50;;;;;;;14.95;6.05;;;;;;;14.93;100.00;101771.16;6250725;23;20019;-82
2023/09/05 06:28:16;;;;;;;15.20;5.60;;;;;;;15.08;100.00;101770.97;6246694;23;20000;-85
2023/09/05 06:30:42;;;;;;;15.80;5.47;;;;;;;15.18;100.00;101769.25;6246846;23;20366;-85
2023/09/05 06:33:07;;;;;;;14.75;5.20;;;;;;;15.29;100.00;101777.41;6218592;23;20015;-82
2023/09/05 06:35:35;;;;;;;14.98;5.00;;;;;;;15.37;100.00;101780.41;6249835;23;20011;-83
2023/09/05 06:38:00;;;;;;;14.70;5.45;;;;;;;15.43;100.00;101779.03;6248614;23;20027;-81
2023/09/05 06:40:25;;;;;;;17.80;5.13;;;;;;;15.51;100.00;101779.28;6225650;23;20008;-82
2023/09/05 06:42:51;;;;;;;14.90;5.05;;;;;;;15.59;100.00;101778.66;6217348;23;20008;-82
2023/09/05 06:45:17;;;;;;;12.55;4.93;;;;;;;15.67;100.00;101780.78;6219104;23;20003;-82
2023/09/05 06:47:42;;;;;;;14.90;4.78;;;;;;;15.72;100.00;101776.72;6248162;23;20019;-82
2023/09/05 06:50:09;;;;;;;16.67;4.93;;;;;;;15.78;100.00;101778.06;6246558;23;20004;-77
2023/09/05 06:52:34;;;;;;;11.27;4.10;;;;;;;15.84;100.00;101777.63;6214527;23;20342;-77
2023/09/05 06:55:00;;;;;;;14.95;4.28;;;;;;;15.89;100.00;101772.66;6241715;23;20004;-79
2023/09/05 06:57:26;;;;;;;14.77;4.40;;;;;;;15.93;100.00;101773.28;6214455;23;20008;-77
2023/09/05 06:59:52;;;;;;;12.65;3.90;;;;;;;15.92;100.00;101766.13;6214691;23;20023;-77
2023/09/05 07:02:17;;;;;;;16.15;4.97;;;;;;;16.01;100.00;101761.81;6214176;23;20008;-78
2023/09/05 07:07:18;;;;;;;11.98;4.15;;;;;;;16.15;100.00;101756.13;6197150;23;20032;-80
2023/09/05 07:09:43;;;;;;;14.85;4.55;;;;;;;16.22;100.00;101753.75;6210326;23;20012;-80
2023/09/05 07:12:08;;;;;;;15.20;4.80;;;;;;;16.28;100.00;101753.22;6210678;23;20039;-82
2023/09/05 07:29:19;;;;;;;15.75;4.88;;;;;;;16.67;100.00;101748.16;6219868;23;20027;-77
2023/09/05 07:31:44;;;;;;;11.75;4.25;;;;;;;16.68;100.00;101749.88;6213147;23;20012;-77
2023/09/05 07:34:09;;;;;;;12.13;3.72;;;;;;;16.78;100.00;101739.97;6238910;23;20054;-77
2023/09/05 07:36:36;;;;;;;10.82;3.92;;;;;;;16.84;100.00;101743.13;6212995;23;20004;-76
2023/09/05 07:39:03;;;;;;;9.82;3.95;;;;;;;16.86;99.78;101741.16;6239529;23;20617;-77
2023/09/05 07:41:30;;;;;;;12.45;4.13;;;;;;;16.97;99.00;101737.53;6240435;23;20007;-77
2023/09/05 07:43:55;;;;;;;12.40;3.85;;;;;;;16.95;100.00;101740.41;6213598;23;20070;-80
2023/09/05 07:46:20;;;;;;;10.63;3.90;;;;;;;16.93;100.00;101736.97;6241153;23;20004;-79
2023/09/05 07:48:47;;;;;;;16.08;5.57;;;;;;;17.01;100.00;101741.72;6214070;23;20019;-79
2023/09/05 07:51:13;;;;;;;13.02;4.55;;;;;;;17.06;100.00;101742.19;6215048;23;20274;-79
2023/09/05 07:53:38;;;;;;;12.52;4.10;;;;;;;17.08;99.13;101746.47;6212301;23;20000;-79
2023/09/05 07:56:04;;;;;;;12.35;4.35;;;;;;;17.14;100.00;101746.97;6212845;23;20014;-80
2023/09/05 07:58:30;;;;;;;12.63;4.05;;;;;;;17.17;100.00;101754.84;6217159;23;20038;-80
2023/09/05 08:00:56;;;;;;;11.35;4.32;;;;;;;17.14;99.55;101755.09;6215683;23;20403;-80
2023/09/05 08:03:27;;;;;;;9.68;3.75;;;;;;;17.18;100.00;101759.28;6214407;23;20337;-80
2023/09/05 08:05:53;;;;;;;11.70;3.70;;;;;;;17.19;99.88;101758.25;6214522;23;20042;-74
2023/09/05 08:08:19;;;;;;;14.75;4.28;;;;;;;17.27;99.73;101766.63;6240100;23;20053;-77
2023/09/05 08:10:45;;;;;;;13.75;4.50;;;;;;;17.34;99.15;101762.38;6240271;23;20384;-78
2023/09/05 08:13:14;;;;;;;17.48;4.68;;;;;;;17.50;97.55;101750.13;6214609;23;20015;-81
2023/09/05 08:15:44;;;;;;;10.65;3.85;;;;;;;17.68;96.25;101755.81;6240074;23;20392;-80
2023/09/05 08:18:11;;;;;;;12.77;4.22;;;;;;;17.69;97.12;101754.78;6212653;23;20011;-79
2023/09/05 08:20:39;;;;;;;11.48;3.97;;;;;;;17.73;97.28;101753.53;6240455;23;20004;-78
2023/09/05 08:23:04;;;;;;;15.65;4.38;;;;;;;17.74;98.03;101747.94;6212771;23;20043;-79
2023/09/05 08:25:30;;;;;;;12.77;4.03;;;;;;;17.79;97.91;101751.13;6212765;23;20000;-78
2023/09/05 08:27:56;;;;;;;16.17;4.53;;;;;;;17.84;96.88;101756.16;6239816;23;20070;-79
2023/09/05 08:30:24;;;;;;;12.35;3.95;;;;;;;17.85;97.89;101752.44;6212847;23;20024;-79
2023/09/05 08:32:53;;;;;;;9.73;3.88;;;;;;;17.94;97.03;101753.50;6240977;23;20008;-77
2023/09/05 08:35:19;;;;;;;16.13;4.70;;;;;;;18.02;96.52;101745.50;6239225;23;20345;-77
2023/09/05 08:37:44;;;;;;;9.60;3.58;;;;;;;18.10;95.69;101742.94;6212259;23;20038;-78
2023/09/05 08:40:10;;;;;;;13.00;3.88;;;;;;;18.29;93.61;101742.13;6213844;23;20000;-78
2023/09/05 08:42:37;;;;;;;9.82;3.55;;;;;;;18.33;95.43;101743.56;6212761;23;20333;-78
2023/09/05 08:45:04;;;;;;;12.07;4.00;;;;;;;18.41;93.16;101750.16;6212384;23;20000;-77
2023/09/05 08:47:30;;;;;;;11.52;4.10;;;;;;;18.48;93.42;101746.72;6240085;23;20008;-77
2023/09/05 08:49:55;;;;;;;15.35;4.43;;;;;;;18.57;94.02;101744.16;6240428;23;20000;-78
2023/09/05 08:52:26;;;;;;;10.82;4.00;;;;;;;18.73;91.65;101744.44;6240123;23;20000;-80
2023/09/05 08:54:56;;;;;;;10.35;3.65;;;;;;;18.74;93.96;101739.81;6211041;23;20004;-77
2023/09/05 08:57:25;;;;;;;14.65;4.15;;;;;;;18.79;93.89;101753.88;6237013;23;20028;-77
2023/09/05 08:59:50;;;;;;;11.60;4.15;;;;;;;18.76;94.69;101741.41;6239930;23;20012;-76
2023/09/05 09:02:16;;;;;;;7.82;3.58;;;;;;;18.79;94.96;101748.44;6240463;23;20445;-78
2023/09/05 09:04:53;;;;;;;12.38;4.28;;;;;;;18.81;96.09;101741.81;6211765;23;20206;-79
2023/09/05 09:07:18;;;;;;;9.80;3.65;;;;;;;18.84;93.88;101747.00;6211924;23;20479;-79
2023/09/05 09:09:44;;;;;;;11.00;3.60;;;;;;;18.91;93.57;101751.91;6211778;23;20008;-78
2023/09/05 09:12:09;;;;;;;11.27;3.53;;;;;;;18.93;94.82;101749.88;6240398;23;20004;-77
2023/09/05 09:14:35;;;;;;;12.35;4.53;;;;;;;18.99;94.07;101755.63;6240184;23;20474;-77
2023/09/05 09:17:04;;;;;;;14.73;4.28;;;;;;;19.12;90.73;101757.16;6239299;23;20008;-79
2023/09/05 09:19:30;;;;;;;12.50;4.43;;;;;;;19.17;91.84;101753.00;6239624;23;20011;-78
2023/09/05 09:22:00;;;;;;;12.30;3.92;;;;;;;19.19;94.10;101763.75;6212488;23;20004;-78
2023/09/05 09:24:32;;;;;;;12.15;4.13;;;;;;;19.29;91.26;101761.00;6239332;23;20083;-78
2023/09/05 09:26:57;;;;;;;13.07;4.18;;;;;;;19.31;91.67;101758.97;6212369;23;20425;-79
2023/09/05 09:29:22;;;;;;;8.32;3.58;;;;;;;19.38;94.21;101760.94;6239410;23;20020;-79
2023/09/05 09:31:48;;;;;;;8.82;3.50;;;;;;;19.34;94.55;101764.13;6212834;23;20008;-78
2023/09/05 09:34:19;;;;;;;11.68;3.78;;;;;;;19.38;94.41;101765.56;6211807;23;20004;-78
2023/09/05 09:36:50;;;;;;;11.88;4.20;;;;;;;19.42;95.15;101771.59;6212026;23;20000;-79
2023/09/05 09:39:17;;;;;;;12.98;4.50;;;;;;;19.46;92.27;101768.41;6239006;23;20012;-78
2023/09/05 09:41:47;;;;;;;11.70;3.40;;;;;;;19.42;96.57;101769.72;6239311;23;20000;-77
2023/09/05 09:44:28;;;;;;;12.98;4.10;;;;;;;19.47;93.76;101770.09;6239230;23;20345;-80
2023/09/05 09:46:54;;;;;;;12.05;4.40;;;;;;;19.64;91.69;101773.94;6212761;23;20057;-84
2023/09/05 09:49:22;;;;;;;8.77;3.53;;;;;;;19.68;94.50;101761.72;6211595;23;20011;-77
2023/09/05 09:51:56;;;;;;;12.23;4.03;;;;;;;19.69;95.62;101765.31;6213365;23;20403;-80
2023/09/05 09:54:31;;;;;;;10.00;3.85;;;;;;;19.74;94.38;101763.84;6239686;23;20004;-78
2023/09/05 09:57:00;;;;;;;11.63;4.00;;;;;;;19.78;95.00;101763.53;6241114;23;20348;-77
2023/09/05 09:59:34;;;;;;;12.30;4.25;;;;;;;19.82;94.27;101760.38;6211582;23;20008;-77
2023/09/05 10:02:04;;;;;;;12.18;4.07;;;;;;;19.86;89.97;101764.53;6238402;23;20329;-77
2023/09/05 10:04:30;;;;;;;12.77;3.92;;;;;;;20.07;89.31;101767.03;6212711;23;20333;-77
2023/09/05 10:06:56;;;;;;;10.75;3.67;;;;;;;20.10;89.79;101765.84;6212124;23;20393;-79
2023/09/05 10:09:23;;;;;;;11.05;4.10;;;;;;;20.18;89.40;101763.22;6211604;23;20054;-77
2023/09/05 10:11:49;;;;;;;10.80;3.72;;;;;;;20.24;88.61;101754.41;6238419;23;19996;-77
2023/09/05 10:14:16;;;;;;;9.85;3.75;;;;;;;20.17;92.46;101750.56;6211784;23;20382;-81
2023/09/05 10:16:44;;;;;;;9.73;3.88;;;;;;;20.22;90.08;101748.25;6211497;23;20008;-76
2023/09/05 10:19:09;;;;;;;12.00;3.67;;;;;;;20.27;89.98;101742.31;6211162;23;20135;-77
2023/09/05 10:21:36;;;;;;;13.05;4.18;;;;;;;20.34;89.17;101742.56;6211228;23;20319;-77
2023/09/05 10:24:09;;;;;;;9.60;3.78;;;;;;;20.38;91.18;101741.22;6219417;23;20143;-91
2023/09/05 10:26:34;;;;;;;14.05;4.60;;;;;;;20.39;89.70;101748.41;6235206;23;20060;-85
2023/09/05 10:29:03;;;;;;;10.35;3.95;;;;;;;20.50;88.89;101747.31;6252501;22;20070;-80
2023/09/05 10:31:29;;;;;;;10.77;3.90;;;;;;;20.51;89.04;101746.31;6218996;23;19996;-79
2023/09/05 10:33:54;;;;;;;10.93;3.80;;;;;;;20.55;90.07;101743.09;6217891;23;20015;-83
2023/09/05 10:36:40;;;;;;;12.82;3.92;;;;;;;20.41;92.18;101740.91;6222042;23;20068;-80
2023/09/05 10:39:27;;;;;;;11.05;4.40;;;;;;;20.45;91.79;101745.06;6221376;23;19996;-81
2023/09/05 10:41:53;;;;;;;11.48;4.00;;;;;;;20.45;90.07;101741.47;6245476;23;20035;-78
2023/09/05 10:44:18;;;;;;;11.45;4.05;;;;;;;20.65;84.57;101742.19;6218866;23;20031;-77
2023/09/05 10:46:43;;;;;;;12.93;4.07;;;;;;;20.78;84.54;101738.06;6248700;23;20004;-76
2023/09/05 10:49:14;;;;;;;12.13;3.92;;;;;;;20.87;84.73;101744.44;6220723;23;20280;-76
2023/09/05 10:52:20;;;;;;;10.50;3.55;;;;;;;20.95;84.95;101738.16;6217760;23;20011;-75
2023/09/05 10:54:45;;;;;;;11.68;3.83;;;;;;;21.09;83.10;101726.66;6242579;23;19999;-78
2023/09/05 10:57:36;;;;;;;11.45;4.22;;;;;;;21.09;86.67;101726.66;6245099;23;20000;-77
2023/09/05 11:00:17;;;;;;;7.13;3.05;;;;;;;21.03;85.82;101724.56;6245507;23;20058;-78
2023/09/05 11:02:44;;;;;;;13.15;3.88;;;;;;;21.09;84.81;101732.13;6216584;23;20004;-77
2023/09/05 11:05:18;;;;;;;12.35;3.85;;;;;;;20.95;87.86;101728.13;6245621;23;20008;-76
2023/09/05 11:07:44;;;;;;;7.38;3.10;;;;;;;21.03;85.93;101723.72;6218217;23;20382;-78
2023/09/05 11:10:25;;;;;;;10.00;3.63;;;;;;;21.16;83.57;101718.69;6243649;23;20004;-79
2023/09/05 11:12:51;;;;;;;8.68;3.75;;;;;;;21.29;82.38;101721.00;6242745;23;20066;-79
2023/09/05 11:15:35;;;;;;;8.45;3.30;;;;;;;21.36;81.32;101713.81;6214707;23;20087;-79
2023/09/05 11:18:06;;;;;;;11.82;3.30;;;;;;;21.29;85.18;101716.38;6216389;23;20039;-79
2023/09/05 11:20:42;;;;;;;8.85;3.90;;;;;;;21.51;76.14;101722.34;6242825;23;20023;-79
2023/09/05 11:23:21;;;;;;;7.53;2.97;;;;;;;21.47;83.02;101726.38;6216198;23;20069;-79
2023/09/05 11:26:00;;;;;;;10.13;3.50;;;;;;;21.44;87.48;101726.72;6215901;23;20000;-79
2023/09/05 11:28:26;;;;;;;9.40;3.53;;;;;;;21.47;82.64;101720.91;6216339;23;20528;-79